createdAt,value
2016-12-09T00:00:39.309Z,0
2016-12-09T00:01:49.759Z,0
2016-12-09T00:03:00.222Z,0
2016-12-09T00:04:10.663Z,0
2016-12-09T00:05:21.165Z,0
2016-12-09T00:06:31.627Z,0
2016-12-09T00:07:42.110Z,0
2016-12-09T00:08:52.590Z,0
2016-12-09T00:10:03.096Z,0
2016-12-09T00:11:13.567Z,0
2016-12-09T00:12:24.081Z,0
2016-12-09T00:13:34.561Z,0
2016-12-09T00:14:45.113Z,0
2016-12-09T00:15:55.875Z,0
2016-12-09T00:17:06.436Z,0
2016-12-09T00:18:17.006Z,0
2016-12-09T00:19:27.567Z,0
2016-12-09T00:20:38.646Z,0
2016-12-09T00:21:49.203Z,0
2016-12-09T00:22:59.786Z,0
2016-12-09T00:24:10.343Z,0
2016-12-09T00:25:20.888Z,0
2016-12-09T00:26:31.460Z,0
2016-12-09T00:27:42.250Z,0
2016-12-09T00:28:52.829Z,0
2016-12-09T00:30:03.396Z,0
2016-12-09T00:31:13.976Z,0
2016-12-09T00:32:24.576Z,0
2016-12-09T00:33:35.152Z,0
2016-12-09T00:34:45.711Z,0
2016-12-09T00:36:10.788Z,0
2016-12-09T00:37:21.345Z,0
2016-12-09T00:38:31.909Z,0
2016-12-09T00:39:42.454Z,0
2016-12-09T00:40:53.043Z,0
2016-12-09T00:42:03.635Z,0
2016-12-09T00:43:14.205Z,0
2016-12-09T00:44:24.763Z,0
2016-12-09T00:45:35.321Z,0
2016-12-09T00:46:45.879Z,0
2016-12-09T00:49:22.127Z,0
2016-12-09T00:50:32.692Z,0
2016-12-09T00:51:43.257Z,0
2016-12-09T00:52:53.820Z,0
2016-12-09T00:54:04.389Z,0
2016-12-09T00:55:15.656Z,0
2016-12-09T00:56:26.219Z,0
2016-12-09T00:59:02.079Z,0
2016-12-09T01:00:12.757Z,0
2016-12-09T01:01:23.248Z,0
2016-12-09T01:02:33.706Z,0
2016-12-09T01:03:44.153Z,0
2016-12-09T01:04:54.620Z,0
2016-12-09T01:06:05.302Z,0
2016-12-09T01:07:15.754Z,0
2016-12-09T01:08:26.233Z,0
2016-12-09T01:09:36.702Z,0
2016-12-09T01:10:47.182Z,0
2016-12-09T01:11:57.662Z,0
2016-12-09T01:13:08.131Z,0
2016-12-09T01:14:33.135Z,0
2016-12-09T01:15:58.150Z,0
2016-12-09T01:17:08.851Z,0
2016-12-09T01:18:19.372Z,0
2016-12-09T01:19:29.834Z,0
2016-12-09T01:20:40.303Z,0
2016-12-09T01:21:50.795Z,0
2016-12-09T01:23:01.474Z,0
2016-12-09T01:24:11.938Z,0
2016-12-09T01:25:22.400Z,0
2016-12-09T01:26:32.883Z,0
2016-12-09T01:27:43.364Z,0
2016-12-09T01:28:54.058Z,0
2016-12-09T01:30:04.543Z,0
2016-12-09T01:31:15.023Z,0
2016-12-09T01:32:40.047Z,0
2016-12-09T01:33:50.718Z,0
2016-12-09T01:35:01.198Z,0
2016-12-09T01:36:11.681Z,0
2016-12-09T01:37:36.699Z,0
2016-12-09T01:38:47.184Z,0
2016-12-09T01:39:57.660Z,0
2016-12-09T01:41:08.329Z,0
2016-12-09T01:42:18.798Z,0
2016-12-09T01:43:29.278Z,0
2016-12-09T01:44:40.057Z,0
2016-12-09T01:45:50.648Z,0
2016-12-09T01:47:01.237Z,0
2016-12-09T01:48:11.798Z,0
2016-12-09T01:49:22.371Z,0
2016-12-09T01:50:33.127Z,0
2016-12-09T01:51:43.701Z,0
2016-12-09T01:52:54.246Z,0
2016-12-09T01:54:04.807Z,0
2016-12-09T01:55:15.371Z,0
2016-12-09T01:56:25.943Z,0
2016-12-09T01:57:36.508Z,0
2016-12-09T01:58:47.096Z,0
2016-12-09T01:59:57.705Z,0
2016-12-09T02:01:08.284Z,0
2016-12-09T02:02:19.057Z,0
2016-12-09T02:03:29.632Z,0
2016-12-09T02:04:40.210Z,0
2016-12-09T02:05:50.785Z,0
2016-12-09T02:07:01.392Z,0
2016-12-09T02:08:12.158Z,0
2016-12-09T02:09:22.724Z,0
2016-12-09T02:10:33.289Z,0
2016-12-09T02:11:58.401Z,0
2016-12-09T02:13:09.172Z,0
2016-12-09T02:14:19.738Z,0
2016-12-09T02:15:30.334Z,0
2016-12-09T02:16:40.895Z,0
2016-12-09T02:17:51.473Z,0
2016-12-09T02:19:02.037Z,0
2016-12-09T02:20:12.620Z,0
2016-12-09T02:21:23.180Z,0
2016-12-09T02:22:33.752Z,0
2016-12-09T02:23:44.837Z,0
2016-12-09T02:24:55.443Z,0
2016-12-09T02:26:06.009Z,0
2016-12-09T02:27:16.600Z,0
2016-12-09T02:28:27.157Z,0
2016-12-09T02:29:37.711Z,0
2016-12-09T02:30:48.471Z,0
2016-12-09T02:31:59.024Z,0
2016-12-09T02:33:24.118Z,0
2016-12-09T02:34:49.201Z,0
2016-12-09T02:37:25.062Z,0
2016-12-09T02:38:35.860Z,0
2016-12-09T02:39:46.423Z,0
2016-12-09T02:40:57.375Z,0
2016-12-09T02:42:07.958Z,0
2016-12-09T02:43:18.524Z,0
2016-12-09T02:44:43.599Z,0
2016-12-09T02:45:54.302Z,0
2016-12-09T02:47:04.878Z,0
2016-12-09T02:48:15.439Z,0
2016-12-09T02:49:26.009Z,0
2016-12-09T02:50:36.589Z,0
2016-12-09T02:51:47.392Z,0
2016-12-09T02:52:57.972Z,0
2016-12-09T02:54:08.527Z,0
2016-12-09T02:55:19.086Z,0
2016-12-09T02:56:29.646Z,0
2016-12-09T02:57:40.266Z,0
2016-12-09T02:58:50.853Z,0
2016-12-09T03:00:01.412Z,0
2016-12-09T03:01:11.984Z,0
2016-12-09T03:02:22.561Z,0
2016-12-09T03:03:33.220Z,0
2016-12-09T03:04:43.786Z,0
2016-12-09T03:05:54.360Z,0
2016-12-09T03:07:04.928Z,0
2016-12-09T03:08:15.886Z,0
2016-12-09T03:09:26.640Z,0
2016-12-09T03:10:37.207Z,0
2016-12-09T03:11:47.773Z,0
2016-12-09T03:12:58.341Z,0
2016-12-09T03:14:08.870Z,0
2016-12-09T03:15:19.540Z,0
2016-12-09T03:16:30.014Z,0
2016-12-09T03:17:40.482Z,0
2016-12-09T03:18:50.957Z,0
2016-12-09T03:20:01.419Z,0
2016-12-09T03:21:12.100Z,0
2016-12-09T03:22:22.587Z,0
2016-12-09T03:23:33.076Z,0
2016-12-09T03:24:43.548Z,0
2016-12-09T03:25:54.001Z,0
2016-12-09T03:27:04.662Z,0
2016-12-09T03:28:15.156Z,0
2016-12-09T03:29:25.639Z,0
2016-12-09T03:30:36.606Z,0
2016-12-09T03:32:01.624Z,0
2016-12-09T03:33:12.099Z,0
2016-12-09T03:34:22.582Z,0
2016-12-09T03:35:33.077Z,0
2016-12-09T03:36:43.746Z,0
2016-12-09T03:37:54.193Z,0
2016-12-09T03:39:04.681Z,0
2016-12-09T03:40:15.155Z,0
2016-12-09T03:41:25.640Z,0
2016-12-09T03:42:36.096Z,0
2016-12-09T03:43:46.698Z,0
2016-12-09T03:44:57.151Z,0
2016-12-09T03:46:07.626Z,0
2016-12-09T03:47:18.119Z,0
2016-12-09T03:48:28.577Z,0
2016-12-09T03:49:39.043Z,0
2016-12-09T03:50:49.538Z,0
2016-12-09T03:52:00.503Z,0
2016-12-09T03:53:10.995Z,0
2016-12-09T03:54:21.464Z,0
2016-12-09T03:55:32.030Z,0
2016-12-09T03:56:57.030Z,0
2016-12-09T03:58:07.498Z,0
2016-12-09T03:59:17.979Z,0
2016-12-09T04:00:28.451Z,0
2016-12-09T04:01:38.942Z,0
2016-12-09T04:02:49.429Z,0
2016-12-09T04:03:59.923Z,0
2016-12-09T04:05:10.388Z,0
2016-12-09T04:06:20.871Z,0
2016-12-09T04:07:31.332Z,0
2016-12-09T04:08:41.802Z,0
2016-12-09T04:09:52.282Z,0
2016-12-09T04:11:02.761Z,0
2016-12-09T04:12:13.441Z,0
2016-12-09T04:13:23.915Z,0
2016-12-09T04:14:34.398Z,0
2016-12-09T04:15:44.886Z,0
2016-12-09T04:16:55.353Z,0
2016-12-09T04:18:06.016Z,0
2016-12-09T04:19:16.483Z,0
2016-12-09T04:20:26.943Z,0
2016-12-09T04:21:37.414Z,0
2016-12-09T04:22:47.883Z,0
2016-12-09T04:23:58.564Z,0
2016-12-09T04:25:09.050Z,0
2016-12-09T04:26:19.518Z,0
2016-12-09T04:27:29.992Z,0
2016-12-09T04:28:40.448Z,0
2016-12-09T04:29:51.104Z,0
2016-12-09T04:31:01.583Z,0
2016-12-09T04:32:12.040Z,0
2016-12-09T04:33:22.516Z,0
2016-12-09T04:34:32.975Z,0
2016-12-09T04:35:43.460Z,0
2016-12-09T04:36:53.957Z,0
2016-12-09T04:38:04.421Z,0
2016-12-09T04:39:14.909Z,0
2016-12-09T04:40:25.374Z,0
2016-12-09T04:41:35.846Z,0
2016-12-09T04:42:46.313Z,0
2016-12-09T04:44:11.322Z,0
2016-12-09T04:45:21.879Z,0
2016-12-09T04:46:32.614Z,0
2016-12-09T04:47:43.144Z,0
2016-12-09T04:48:53.712Z,0
2016-12-09T04:50:04.267Z,0
2016-12-09T04:51:14.707Z,0
2016-12-09T04:52:25.343Z,0
2016-12-09T04:53:35.780Z,0
2016-12-09T04:54:46.211Z,0
2016-12-09T04:55:56.639Z,0
2016-12-09T04:57:07.056Z,0
2016-12-09T04:58:17.680Z,0
2016-12-09T04:59:28.099Z,0
2016-12-09T05:00:38.514Z,0
2016-12-09T05:01:48.931Z,0
2016-12-09T05:02:59.360Z,0
2016-12-09T05:04:09.774Z,0
2016-12-09T05:05:20.192Z,0
2016-12-09T05:06:30.609Z,0
2016-12-09T05:07:41.022Z,0
2016-12-09T05:08:51.447Z,0
2016-12-09T05:10:02.056Z,0
2016-12-09T05:11:12.476Z,0
2016-12-09T05:12:22.902Z,0
2016-12-09T05:14:58.271Z,0
2016-12-09T05:16:09.175Z,0
2016-12-09T05:17:19.587Z,0
2016-12-09T05:18:29.997Z,0
2016-12-09T05:19:40.899Z,0
2016-12-09T05:20:51.512Z,0
2016-12-09T05:22:01.924Z,0
2016-12-09T05:23:12.337Z,0
2016-12-09T05:24:22.755Z,0
2016-12-09T05:25:33.162Z,0
2016-12-09T05:26:43.574Z,0
2016-12-09T05:27:53.984Z,0
2016-12-09T05:29:04.879Z,0
2016-12-09T05:30:15.200Z,0
2016-12-09T05:31:25.553Z,0
2016-12-09T05:32:36.074Z,0
2016-12-09T05:33:46.395Z,0
2016-12-09T05:34:56.713Z,0
2016-12-09T05:36:07.033Z,0
2016-12-09T05:37:17.351Z,0
2016-12-09T05:38:27.768Z,0
2016-12-09T05:39:38.084Z,0
2016-12-09T05:40:48.408Z,0
2016-12-09T05:41:58.729Z,0
2016-12-09T05:43:09.052Z,0
2016-12-09T05:44:19.369Z,0
2016-12-09T05:45:44.289Z,0
2016-12-09T05:46:54.607Z,0
2016-12-09T05:48:04.924Z,0
2016-12-09T05:49:15.250Z,0
2016-12-09T05:50:40.135Z,0
2016-12-09T05:51:50.453Z,0
2016-12-09T05:53:00.779Z,0
2016-12-09T05:54:11.103Z,0
2016-12-09T05:55:21.419Z,0
2016-12-09T05:56:31.739Z,0
2016-12-09T05:57:42.064Z,0
2016-12-09T06:00:17.594Z,0
2016-12-09T06:01:28.034Z,0
2016-12-09T06:02:38.468Z,0
2016-12-09T06:03:48.905Z,0
2016-12-09T06:04:59.347Z,0
2016-12-09T06:06:09.783Z,0
2016-12-09T06:07:20.222Z,0
2016-12-09T06:08:30.668Z,0
2016-12-09T06:09:41.112Z,0
2016-12-09T06:10:51.556Z,0
2016-12-09T06:12:02.191Z,0
2016-12-09T06:13:12.628Z,0
2016-12-09T06:14:23.064Z,0
2016-12-09T06:15:33.504Z,0
2016-12-09T06:16:43.940Z,0
2016-12-09T06:17:54.575Z,0
2016-12-09T06:19:05.010Z,0
2016-12-09T06:20:15.450Z,0
2016-12-09T06:21:25.885Z,0
2016-12-09T06:22:36.322Z,0
2016-12-09T06:23:46.756Z,0
2016-12-09T06:24:57.195Z,0
2016-12-09T06:26:07.635Z,0
2016-12-09T06:27:18.080Z,0
2016-12-09T06:28:43.262Z,0
2016-12-09T06:29:53.700Z,0
2016-12-09T06:31:04.138Z,0
2016-12-09T06:32:15.062Z,0
2016-12-09T06:33:25.503Z,0
2016-12-09T06:34:36.037Z,0
2016-12-09T06:35:46.361Z,0
2016-12-09T06:36:56.676Z,0
2016-12-09T06:38:07.001Z,0
2016-12-09T06:39:31.898Z,0
2016-12-09T06:40:42.217Z,0
2016-12-09T06:41:52.538Z,0
2016-12-09T06:43:02.855Z,0
2016-12-09T06:44:13.173Z,0
2016-12-09T06:45:23.688Z,0
2016-12-09T06:46:34.009Z,0
2016-12-09T06:47:44.328Z,0
2016-12-09T06:48:54.646Z,0
2016-12-09T06:50:04.967Z,0
2016-12-09T06:51:15.486Z,0
2016-12-09T06:52:40.371Z,0
2016-12-09T06:53:50.716Z,0
2016-12-09T06:55:01.034Z,0
2016-12-09T06:56:11.559Z,0
2016-12-09T06:57:21.882Z,0
2016-12-09T06:58:32.201Z,0
2016-12-09T06:59:42.522Z,0
2016-12-09T07:00:52.844Z,0
2016-12-09T07:02:03.365Z,0
2016-12-09T07:03:13.686Z,0
2016-12-09T07:04:24.002Z,0
2016-12-09T07:05:34.318Z,0
2016-12-09T07:06:44.637Z,0
2016-12-09T07:07:55.158Z,0
2016-12-09T07:09:05.475Z,0
2016-12-09T07:10:15.794Z,0
2016-12-09T07:11:26.112Z,0
2016-12-09T07:12:36.433Z,0
2016-12-09T07:13:46.956Z,0
2016-12-09T07:14:57.278Z,0
2016-12-09T07:16:07.599Z,0
2016-12-09T07:17:17.916Z,0
2016-12-09T07:18:28.245Z,0
2016-12-09T07:19:38.563Z,0
2016-12-09T07:20:48.884Z,0
2016-12-09T07:21:59.202Z,0
2016-12-09T07:23:09.520Z,0
2016-12-09T07:24:19.840Z,0
2016-12-09T07:25:30.358Z,0
2016-12-09T07:26:40.673Z,0
2016-12-09T07:27:50.989Z,0
2016-12-09T07:29:01.307Z,0
2016-12-09T07:30:11.626Z,0
2016-12-09T07:31:21.944Z,0
2016-12-09T07:32:32.265Z,0
2016-12-09T07:33:42.583Z,0
2016-12-09T07:34:52.899Z,0
2016-12-09T07:36:03.219Z,0
2016-12-09T07:37:13.533Z,0
2016-12-09T07:38:23.848Z,0
2016-12-09T07:39:34.162Z,0
2016-12-09T07:40:44.479Z,0
2016-12-09T07:41:54.794Z,0
2016-12-09T07:43:05.313Z,0
2016-12-09T07:44:15.631Z,0
2016-12-09T07:45:25.947Z,0
2016-12-09T07:46:50.836Z,0
2016-12-09T07:48:01.356Z,0
2016-12-09T07:49:11.674Z,0
2016-12-09T07:50:21.990Z,0
2016-12-09T07:51:32.307Z,0
2016-12-09T07:52:42.625Z,0
2016-12-09T07:53:53.138Z,0
2016-12-09T07:55:03.463Z,0
2016-12-09T07:56:13.777Z,0
2016-12-09T07:57:24.102Z,0
2016-12-09T07:58:34.419Z,0
2016-12-09T07:59:44.739Z,0
2016-12-09T08:01:09.632Z,0
2016-12-09T08:02:19.953Z,0
2016-12-09T08:03:30.268Z,0
2016-12-09T08:04:40.788Z,0
2016-12-09T08:05:51.107Z,0
2016-12-09T08:07:01.427Z,0
2016-12-09T08:08:11.748Z,0
2016-12-09T08:09:22.064Z,0
2016-12-09T08:10:32.579Z,0
2016-12-09T08:11:42.902Z,0
2016-12-09T08:12:53.219Z,0
2016-12-09T08:14:03.533Z,0
2016-12-09T08:15:13.851Z,0
2016-12-09T08:16:24.366Z,0
2016-12-09T08:17:34.685Z,0
2016-12-09T08:18:59.568Z,0
2016-12-09T08:20:09.889Z,0
2016-12-09T08:21:20.407Z,0
2016-12-09T08:22:30.724Z,0
2016-12-09T08:23:41.043Z,0
2016-12-09T08:24:51.367Z,0
2016-12-09T08:26:01.683Z,0
2016-12-09T08:27:12.203Z,0
2016-12-09T08:28:37.087Z,0
2016-12-09T08:29:47.503Z,0
2016-12-09T08:32:23.095Z,0
2016-12-09T08:33:33.509Z,0
2016-12-09T08:34:43.917Z,0
2016-12-09T08:35:54.321Z,0
2016-12-09T08:37:04.729Z,0
2016-12-09T08:38:15.138Z,0
2016-12-09T08:39:25.547Z,5
2016-12-09T08:40:35.955Z,5
2016-12-09T08:42:00.913Z,5
2016-12-09T08:43:11.326Z,5
2016-12-09T08:44:21.737Z,5
2016-12-09T08:45:32.145Z,5
2016-12-09T08:46:42.550Z,5
2016-12-09T08:47:52.967Z,5
2016-12-09T08:49:03.570Z,5
2016-12-09T08:50:13.984Z,5
2016-12-09T08:51:24.387Z,5
2016-12-09T08:52:34.805Z,5
2016-12-09T08:53:45.213Z,5
2016-12-09T08:54:55.654Z,5
2016-12-09T08:56:06.182Z,5
2016-12-09T08:57:16.707Z,10
2016-12-09T08:58:27.234Z,10
2016-12-09T08:59:37.763Z,10
2016-12-09T09:00:48.519Z,10
2016-12-09T09:01:59.047Z,10
2016-12-09T09:03:09.575Z,10
2016-12-09T09:04:20.102Z,10
2016-12-09T09:05:30.628Z,10
2016-12-09T09:08:06.212Z,5
2016-12-09T09:09:16.742Z,5
2016-12-09T09:10:27.270Z,5
2016-12-09T09:11:37.998Z,10
2016-12-09T09:12:48.527Z,10
2016-12-09T09:13:59.053Z,10
2016-12-09T09:15:09.584Z,10
2016-12-09T09:16:20.113Z,10
2016-12-09T09:17:30.642Z,15
2016-12-09T09:18:41.169Z,15
2016-12-09T09:19:51.699Z,15
2016-12-09T09:21:02.229Z,15
2016-12-09T09:22:12.759Z,20
2016-12-09T09:23:23.483Z,20
2016-12-09T09:24:34.010Z,20
2016-12-09T09:25:44.548Z,20
2016-12-09T09:26:55.077Z,20
2016-12-09T09:28:06.112Z,20
2016-12-09T09:29:16.638Z,20
2016-12-09T09:30:27.164Z,20
2016-12-09T09:31:37.695Z,20
2016-12-09T09:32:48.222Z,20
2016-12-09T09:33:58.750Z,20
2016-12-09T09:35:09.483Z,20
2016-12-09T09:36:20.041Z,20
2016-12-09T09:37:30.573Z,20
2016-12-09T09:38:41.104Z,25
2016-12-09T09:39:51.630Z,20
2016-12-09T09:41:02.161Z,20
2016-12-09T09:42:13.192Z,20
2016-12-09T09:43:23.724Z,20
2016-12-09T09:44:34.255Z,20
2016-12-09T09:45:44.782Z,20
2016-12-09T09:46:55.513Z,20
2016-12-09T09:48:06.041Z,20
2016-12-09T09:50:41.627Z,20
2016-12-09T09:51:52.357Z,20
2016-12-09T09:53:02.894Z,20
2016-12-09T09:54:13.945Z,20
2016-12-09T09:55:24.474Z,20
2016-12-09T09:56:35.001Z,20
2016-12-09T09:57:45.738Z,20
2016-12-09T09:58:56.265Z,20
2016-12-09T10:00:06.794Z,20
2016-12-09T10:01:17.323Z,25
2016-12-09T10:02:27.847Z,25
2016-12-09T10:03:38.377Z,25
2016-12-09T10:04:48.911Z,25
2016-12-09T10:06:13.968Z,25
2016-12-09T10:07:24.494Z,25
2016-12-09T10:08:35.224Z,25
2016-12-09T10:09:45.752Z,25
2016-12-09T10:10:56.289Z,25
2016-12-09T10:12:06.820Z,25
2016-12-09T10:13:17.351Z,20
2016-12-09T10:14:27.880Z,20
2016-12-09T10:15:38.408Z,20
2016-12-09T10:17:03.467Z,20
2016-12-09T10:18:13.996Z,20
2016-12-09T10:19:24.524Z,20
2016-12-09T10:20:35.051Z,20
2016-12-09T10:21:45.581Z,25
2016-12-09T10:22:56.109Z,25
2016-12-09T10:24:06.639Z,25
2016-12-09T10:25:17.367Z,25
2016-12-09T10:26:27.904Z,25
2016-12-09T10:27:38.433Z,30
2016-12-09T10:28:48.962Z,30
2016-12-09T10:29:59.493Z,30
2016-12-09T10:31:10.224Z,30
2016-12-09T10:32:20.781Z,35
2016-12-09T10:33:45.836Z,30
2016-12-09T10:34:56.859Z,25
2016-12-09T10:36:07.591Z,25
2016-12-09T10:37:18.145Z,25
2016-12-09T10:38:28.673Z,25
2016-12-09T10:39:39.099Z,25
2016-12-09T10:40:49.509Z,30
2016-12-09T10:42:00.124Z,30
2016-12-09T10:43:10.537Z,30
2016-12-09T10:44:20.946Z,30
2016-12-09T10:45:31.358Z,30
2016-12-09T10:46:41.769Z,30
2016-12-09T10:47:52.185Z,35
2016-12-09T10:49:02.595Z,35
2016-12-09T10:50:13.008Z,35
2016-12-09T10:51:23.428Z,40
2016-12-09T10:52:33.839Z,40
2016-12-09T10:53:59.006Z,40
2016-12-09T10:55:09.425Z,40
2016-12-09T10:56:19.835Z,40
2016-12-09T10:57:30.245Z,40
2016-12-09T10:58:40.757Z,40
2016-12-09T10:59:51.172Z,40
2016-12-09T11:01:01.586Z,40
2016-12-09T11:02:12.001Z,40
2016-12-09T11:03:22.411Z,40
2016-12-09T11:04:32.829Z,45
2016-12-09T11:05:43.239Z,40
2016-12-09T11:06:53.647Z,40
2016-12-09T11:08:04.580Z,40
2016-12-09T11:09:15.480Z,40
2016-12-09T11:10:26.092Z,40
2016-12-09T11:11:36.498Z,40
2016-12-09T11:12:46.904Z,40
2016-12-09T11:14:11.866Z,35
2016-12-09T11:15:22.277Z,35
2016-12-09T11:16:32.686Z,35
2016-12-09T11:17:43.098Z,35
2016-12-09T11:18:53.506Z,35
2016-12-09T11:20:03.914Z,35
2016-12-09T11:21:14.525Z,35
2016-12-09T11:22:24.942Z,40
2016-12-09T11:23:35.364Z,40
2016-12-09T11:24:45.778Z,40
2016-12-09T11:25:56.191Z,40
2016-12-09T11:27:06.600Z,40
2016-12-09T11:28:31.587Z,35
2016-12-09T11:29:41.997Z,35
2016-12-09T11:31:06.959Z,35
2016-12-09T11:32:17.577Z,35
2016-12-09T11:33:27.986Z,55
2016-12-09T11:34:38.397Z,65
2016-12-09T11:35:48.819Z,45
2016-12-09T11:37:13.979Z,35
2016-12-09T11:38:38.974Z,40
2016-12-09T11:39:49.391Z,45
2016-12-09T11:40:59.804Z,55
2016-12-09T11:42:10.210Z,40
2016-12-09T11:43:20.819Z,65
2016-12-09T11:44:31.715Z,45
2016-12-09T11:45:42.122Z,45
2016-12-09T11:46:52.531Z,40
2016-12-09T11:48:02.945Z,40
2016-12-09T11:49:13.667Z,40
2016-12-09T11:50:24.207Z,40
2016-12-09T11:51:34.736Z,40
2016-12-09T11:52:59.795Z,40
2016-12-09T11:54:10.324Z,40
2016-12-09T11:55:35.382Z,40
2016-12-09T11:56:46.409Z,40
2016-12-09T11:57:56.967Z,50
2016-12-09T12:00:32.583Z,55
2016-12-09T12:01:43.638Z,70
2016-12-09T12:02:54.167Z,70
2016-12-09T12:04:04.700Z,70
2016-12-09T12:05:15.235Z,75
2016-12-09T12:06:25.766Z,75
2016-12-09T12:07:36.293Z,80
2016-12-09T12:08:46.825Z,80
2016-12-09T12:09:57.358Z,80
2016-12-09T12:11:08.092Z,70
2016-12-09T12:12:19.131Z,70
2016-12-09T12:13:44.621Z,80
2016-12-09T12:14:55.062Z,85
2016-12-09T12:16:05.503Z,90
2016-12-09T12:17:15.944Z,90
2016-12-09T12:18:26.382Z,80
2016-12-09T12:19:36.850Z,95
2016-12-09T12:20:47.287Z,70
2016-12-09T12:21:57.725Z,60
2016-12-09T12:23:08.654Z,95
2016-12-09T12:24:19.091Z,80
2016-12-09T12:25:29.528Z,65
2016-12-09T12:26:39.970Z,50
2016-12-09T12:27:50.449Z,50
2016-12-09T12:29:00.888Z,55
2016-12-09T12:30:11.332Z,55
2016-12-09T12:31:21.777Z,65
2016-12-09T12:32:32.213Z,85
2016-12-09T12:33:42.853Z,80
2016-12-09T12:34:53.293Z,75
2016-12-09T12:36:03.734Z,105
2016-12-09T12:37:14.169Z,120
2016-12-09T12:38:24.613Z,100
2016-12-09T12:41:00.244Z,55
2016-12-09T12:42:10.694Z,55
2016-12-09T12:43:21.135Z,55
2016-12-09T12:44:31.581Z,55
2016-12-09T12:45:42.509Z,55
2016-12-09T12:46:52.953Z,100
2016-12-09T12:48:03.392Z,75
2016-12-09T12:49:14.033Z,65
2016-12-09T12:50:24.668Z,65
2016-12-09T12:51:35.110Z,55
2016-12-09T12:52:45.580Z,55
2016-12-09T12:53:56.016Z,45
2016-12-09T12:55:06.461Z,45
2016-12-09T12:56:17.405Z,45
2016-12-09T12:57:42.419Z,50
2016-12-09T12:58:52.963Z,50
2016-12-09T13:00:03.545Z,60
2016-12-09T13:01:14.084Z,50
2016-12-09T13:02:24.614Z,55
2016-12-09T13:03:35.143Z,55
